createdAt,value
2023-01-31T00:00:12.081Z,0
2023-01-31T00:01:51.860Z,0
2023-01-31T00:03:31.629Z,0
2023-01-31T00:05:11.394Z,0
2023-01-31T00:06:51.326Z,0
2023-01-31T00:08:30.914Z,0
2023-01-31T00:10:10.745Z,0
2023-01-31T00:11:50.505Z,0
2023-01-31T00:13:30.212Z,0
2023-01-31T00:15:10.021Z,0
2023-01-31T00:16:49.859Z,0
2023-01-31T00:18:29.536Z,0
2023-01-31T00:20:09.293Z,0
2023-01-31T00:21:49.048Z,0
2023-01-31T00:23:28.825Z,0
2023-01-31T00:25:08.593Z,0
2023-01-31T00:26:48.359Z,0
2023-01-31T00:28:28.118Z,0
2023-01-31T00:30:07.921Z,0
2023-01-31T00:31:47.675Z,0
2023-01-31T00:33:27.479Z,0
2023-01-31T00:35:07.227Z,0
2023-01-31T00:36:46.952Z,0
2023-01-31T00:38:26.729Z,0
2023-01-31T00:40:06.479Z,0
2023-01-31T00:41:46.299Z,0
2023-01-31T00:43:26.033Z,0
2023-01-31T00:45:05.794Z,0
2023-01-31T00:46:45.597Z,0
2023-01-31T00:48:25.342Z,0
2023-01-31T00:50:05.201Z,0
2023-01-31T00:51:44.869Z,0
2023-01-31T00:53:24.624Z,0
2023-01-31T00:55:04.413Z,0
2023-01-31T00:56:44.154Z,0
2023-01-31T00:58:23.928Z,0
2023-01-31T01:00:03.729Z,0
2023-01-31T01:01:43.472Z,0
2023-01-31T01:03:23.373Z,0
2023-01-31T01:05:02.992Z,0
2023-01-31T01:06:42.761Z,0
2023-01-31T01:08:22.660Z,0
2023-01-31T01:10:02.307Z,0
2023-01-31T01:11:42.128Z,0
2023-01-31T01:13:21.909Z,0
2023-01-31T01:15:01.668Z,0
2023-01-31T01:16:41.407Z,0
2023-01-31T01:18:21.214Z,0
2023-01-31T01:20:00.901Z,0
2023-01-31T01:21:40.682Z,0
2023-01-31T01:23:20.511Z,0
2023-01-31T01:25:00.215Z,0
2023-01-31T01:26:40.108Z,0
2023-01-31T01:28:19.837Z,0
2023-01-31T01:29:59.537Z,0
2023-01-31T01:31:39.306Z,0
2023-01-31T01:33:19.136Z,0
2023-01-31T01:34:58.838Z,0
2023-01-31T01:36:38.685Z,0
2023-01-31T01:38:18.343Z,0
2023-01-31T01:39:58.159Z,0
2023-01-31T01:41:37.881Z,0
2023-01-31T01:43:17.707Z,0
2023-01-31T01:44:57.455Z,0
2023-01-31T01:46:37.179Z,0
2023-01-31T01:48:16.939Z,0
2023-01-31T01:49:56.706Z,0
2023-01-31T01:51:36.494Z,0
2023-01-31T01:53:16.261Z,0
2023-01-31T01:54:56.017Z,0
2023-01-31T01:56:35.780Z,0
2023-01-31T01:58:15.691Z,0
2023-01-31T01:59:55.394Z,0
2023-01-31T02:01:35.192Z,0
2023-01-31T02:03:14.952Z,0
2023-01-31T02:04:54.660Z,0
2023-01-31T02:06:34.405Z,0
2023-01-31T02:08:14.161Z,0
2023-01-31T02:09:53.950Z,0
2023-01-31T02:11:33.692Z,0
2023-01-31T02:13:13.492Z,0
2023-01-31T02:14:53.324Z,0
2023-01-31T02:16:33.005Z,0
2023-01-31T02:18:12.934Z,0
2023-01-31T02:19:52.626Z,0
2023-01-31T02:21:32.322Z,0
2023-01-31T02:23:12.139Z,0
2023-01-31T02:24:51.908Z,0
2023-01-31T02:26:31.591Z,0
2023-01-31T02:28:11.493Z,0
2023-01-31T02:29:51.158Z,0
2023-01-31T02:31:31.001Z,0
2023-01-31T02:33:10.700Z,0
2023-01-31T02:34:50.426Z,0
2023-01-31T02:36:30.328Z,0
2023-01-31T02:38:09.977Z,0
2023-01-31T02:39:49.771Z,0
2023-01-31T02:41:29.482Z,0
2023-01-31T02:43:09.259Z,0
2023-01-31T02:44:49.174Z,0
2023-01-31T02:46:28.854Z,0
2023-01-31T02:48:08.769Z,0
2023-01-31T02:49:48.540Z,0
2023-01-31T02:51:28.098Z,0
2023-01-31T02:53:08.059Z,0
2023-01-31T02:54:47.659Z,0
2023-01-31T02:56:27.561Z,0
2023-01-31T02:58:07.300Z,0
2023-01-31T02:59:46.932Z,0
2023-01-31T03:01:26.765Z,0
2023-01-31T03:03:06.465Z,0
2023-01-31T03:04:46.417Z,0
2023-01-31T03:06:26.169Z,0
2023-01-31T03:08:05.840Z,0
2023-01-31T03:09:45.532Z,0
2023-01-31T03:11:25.405Z,0
2023-01-31T03:13:05.082Z,0
2023-01-31T03:14:44.985Z,0
2023-01-31T03:16:24.684Z,0
2023-01-31T03:18:04.605Z,0
2023-01-31T03:19:44.208Z,0
2023-01-31T03:21:24.022Z,0
2023-01-31T03:23:03.779Z,0
2023-01-31T03:24:43.554Z,0
2023-01-31T03:26:23.427Z,0
2023-01-31T03:28:03.158Z,0
2023-01-31T03:29:42.823Z,0
2023-01-31T03:31:22.668Z,0
2023-01-31T03:33:02.346Z,0
2023-01-31T03:34:42.133Z,0
2023-01-31T03:36:21.983Z,0
2023-01-31T03:38:01.603Z,0
2023-01-31T03:39:41.412Z,0
2023-01-31T03:41:21.248Z,0
2023-01-31T03:43:00.886Z,0
2023-01-31T03:44:40.791Z,0
2023-01-31T03:46:20.569Z,0
2023-01-31T03:48:00.356Z,0
2023-01-31T03:49:39.953Z,0
2023-01-31T03:51:19.867Z,0
2023-01-31T03:52:59.553Z,0
2023-01-31T03:54:39.287Z,0
2023-01-31T03:56:19.103Z,0
2023-01-31T03:57:58.791Z,0
2023-01-31T03:59:38.700Z,0
2023-01-31T04:01:18.293Z,0
2023-01-31T04:02:58.219Z,0
2023-01-31T04:04:37.981Z,0
2023-01-31T04:06:17.748Z,0
2023-01-31T04:07:57.451Z,0
2023-01-31T04:09:37.118Z,0
2023-01-31T04:11:16.976Z,0
2023-01-31T04:12:56.785Z,0
2023-01-31T04:14:36.443Z,0
2023-01-31T04:16:16.312Z,0
2023-01-31T04:17:55.944Z,0
2023-01-31T04:19:35.833Z,0
2023-01-31T04:21:15.561Z,0
2023-01-31T04:22:55.323Z,0
2023-01-31T04:24:35.006Z,0
2023-01-31T04:26:14.869Z,0
2023-01-31T04:27:54.681Z,0
2023-01-31T04:29:34.465Z,0
2023-01-31T04:31:14.168Z,0
2023-01-31T04:32:53.826Z,0
2023-01-31T04:34:33.746Z,0
2023-01-31T04:36:13.411Z,0
2023-01-31T04:37:53.113Z,0
2023-01-31T04:39:33.026Z,0
2023-01-31T04:41:12.645Z,0
2023-01-31T04:42:52.412Z,0
2023-01-31T04:44:32.298Z,0
2023-01-31T04:46:12.124Z,0
2023-01-31T04:47:51.856Z,0
2023-01-31T04:49:31.618Z,0
2023-01-31T04:51:11.258Z,0
2023-01-31T04:52:51.166Z,0
2023-01-31T04:54:30.879Z,0
2023-01-31T04:56:10.519Z,0
2023-01-31T04:57:50.290Z,0
2023-01-31T04:59:30.049Z,0
2023-01-31T05:01:09.803Z,0
2023-01-31T05:02:49.573Z,0
2023-01-31T05:04:29.408Z,0
2023-01-31T05:06:09.213Z,0
2023-01-31T05:07:49.038Z,0
2023-01-31T05:09:28.797Z,0
2023-01-31T05:11:08.438Z,0
2023-01-31T05:12:48.335Z,0
2023-01-31T05:14:28.137Z,0
2023-01-31T05:16:07.803Z,0
2023-01-31T05:17:47.487Z,0
2023-01-31T05:19:27.291Z,0
2023-01-31T05:21:07.123Z,0
2023-01-31T05:22:46.878Z,0
2023-01-31T05:24:26.509Z,0
2023-01-31T05:26:06.423Z,0
2023-01-31T05:27:46.173Z,0
2023-01-31T05:29:25.948Z,0
2023-01-31T05:31:05.620Z,0
2023-01-31T05:32:45.454Z,0
2023-01-31T05:34:25.195Z,0
2023-01-31T05:36:05.019Z,0
2023-01-31T05:37:44.804Z,0
2023-01-31T05:39:24.513Z,0
2023-01-31T05:41:04.316Z,0
2023-01-31T05:42:44.099Z,0
2023-01-31T05:44:23.692Z,0
2023-01-31T05:46:03.545Z,0
2023-01-31T05:47:43.321Z,0
2023-01-31T05:49:23.022Z,0
2023-01-31T05:51:02.770Z,0
2023-01-31T05:52:42.702Z,0
2023-01-31T05:54:22.320Z,0
2023-01-31T05:56:02.067Z,0
2023-01-31T05:57:41.948Z,0
2023-01-31T05:59:21.794Z,0
2023-01-31T06:01:01.414Z,0
2023-01-31T06:02:41.245Z,0
2023-01-31T06:04:21.064Z,0
2023-01-31T06:06:00.670Z,0
2023-01-31T06:07:40.610Z,0
2023-01-31T06:09:20.319Z,0
2023-01-31T06:11:00.199Z,0
2023-01-31T06:12:39.722Z,0
2023-01-31T06:14:19.634Z,0
2023-01-31T06:15:59.336Z,0
2023-01-31T06:17:39.039Z,0
2023-01-31T06:19:18.923Z,0
2023-01-31T06:20:58.687Z,0
2023-01-31T06:22:38.390Z,0
2023-01-31T06:24:18.248Z,0
2023-01-31T06:25:57.971Z,0
2023-01-31T06:27:37.659Z,0
2023-01-31T06:29:17.389Z,0.51
2023-01-31T06:30:57.258Z,0
2023-01-31T06:32:37.007Z,0.25
2023-01-31T06:34:16.699Z,0
2023-01-31T06:35:56.571Z,0
2023-01-31T06:37:36.315Z,0
2023-01-31T06:39:16.185Z,0
2023-01-31T06:40:55.905Z,0
2023-01-31T06:42:35.656Z,0
2023-01-31T06:44:15.427Z,0
2023-01-31T06:45:55.271Z,0
2023-01-31T06:47:34.844Z,0.51
2023-01-31T06:49:14.714Z,0
2023-01-31T06:50:54.515Z,0
2023-01-31T06:52:34.258Z,0
2023-01-31T06:54:14.030Z,0
2023-01-31T06:55:53.788Z,2.05
2023-01-31T06:57:33.437Z,0
2023-01-31T06:59:13.249Z,0.51
2023-01-31T07:00:53.146Z,0
2023-01-31T07:02:32.907Z,1.79
2023-01-31T07:04:12.621Z,0
2023-01-31T07:05:52.327Z,1.28
2023-01-31T07:07:32.136Z,0
2023-01-31T07:09:11.815Z,0
2023-01-31T07:10:51.654Z,0
2023-01-31T07:12:31.473Z,0
2023-01-31T07:14:11.164Z,0
2023-01-31T07:15:50.958Z,0
2023-01-31T07:17:30.802Z,0
2023-01-31T07:19:10.537Z,1.8
2023-01-31T07:20:50.300Z,0.77
2023-01-31T07:22:29.942Z,0.51
2023-01-31T07:24:09.806Z,4.64
2023-01-31T07:25:49.654Z,5.16
2023-01-31T07:27:29.324Z,4.65
2023-01-31T07:29:09.104Z,8.3
2023-01-31T07:30:48.907Z,7.79
2023-01-31T07:32:28.615Z,6.23
2023-01-31T07:34:08.488Z,6.75
2023-01-31T07:35:48.112Z,7.27
2023-01-31T07:37:27.873Z,4.92
2023-01-31T07:39:07.745Z,3.37
2023-01-31T07:40:47.488Z,3.37
2023-01-31T07:42:27.343Z,6.76
2023-01-31T07:44:06.952Z,7.55
2023-01-31T07:45:46.733Z,7.82
2023-01-31T07:47:26.702Z,7.56
2023-01-31T07:49:06.383Z,7.57
2023-01-31T07:50:46.065Z,9.14
2023-01-31T07:52:25.847Z,5.73
2023-01-31T07:54:05.710Z,6.53
2023-01-31T07:55:45.338Z,4.17
2023-01-31T07:57:25.277Z,2.08
2023-01-31T07:59:05.022Z,3.91
2023-01-31T08:00:44.738Z,4.69
2023-01-31T08:02:24.592Z,4.44
2023-01-31T08:04:04.207Z,6.27
2023-01-31T08:05:44.050Z,7.06
2023-01-31T08:07:23.852Z,8.12
2023-01-31T08:09:03.634Z,7.6
2023-01-31T08:10:43.359Z,5.5
2023-01-31T08:12:23.230Z,7.35
2023-01-31T08:14:03.003Z,6.56
2023-01-31T08:15:42.628Z,6.3
2023-01-31T08:17:22.359Z,8.14
2023-01-31T08:19:02.155Z,14.17
2023-01-31T08:20:41.912Z,8.96
2023-01-31T08:22:21.679Z,9.76
2023-01-31T08:24:01.507Z,7.91
2023-01-31T08:25:41.336Z,8.71
2023-01-31T08:27:21.092Z,9.78
2023-01-31T08:29:00.963Z,10.06
2023-01-31T08:30:40.570Z,25.97
2023-01-31T08:32:20.350Z,12.25
2023-01-31T08:34:00.284Z,11.73
2023-01-31T08:35:39.904Z,9.59
2023-01-31T08:37:19.657Z,9.32
2023-01-31T08:38:59.442Z,9.85
2023-01-31T08:40:39.145Z,11.21
2023-01-31T08:42:19.052Z,12.57
2023-01-31T08:43:58.768Z,9.08
2023-01-31T08:45:38.639Z,7.47
2023-01-31T08:47:18.390Z,6.67
2023-01-31T08:48:57.985Z,7.2
2023-01-31T08:50:37.781Z,6.93
2023-01-31T08:52:17.637Z,7.47
2023-01-31T08:53:57.413Z,8.28
2023-01-31T08:55:37.232Z,6.4
2023-01-31T08:57:16.899Z,6.94
2023-01-31T08:58:56.697Z,10.43
2023-01-31T09:00:36.392Z,10.98
2023-01-31T09:02:16.157Z,10.99
2023-01-31T09:03:56.028Z,14.53
2023-01-31T09:05:35.705Z,13.19
2023-01-31T09:07:15.496Z,11.3
2023-01-31T09:08:55.380Z,15.38
2023-01-31T09:10:35.170Z,13.96
2023-01-31T09:12:14.889Z,12.7
2023-01-31T09:13:54.586Z,16
2023-01-31T09:15:34.313Z,13.54
2023-01-31T09:17:14.243Z,9.46
2023-01-31T09:18:54.023Z,10.27
2023-01-31T09:20:33.626Z,10
2023-01-31T09:22:13.454Z,8.91
2023-01-31T09:23:53.299Z,8.91
2023-01-31T09:25:32.946Z,9.45
2023-01-31T09:27:12.746Z,8.1
2023-01-31T09:28:52.641Z,11.91
2023-01-31T09:30:32.330Z,10.82
2023-01-31T09:32:12.088Z,20.45
2023-01-31T09:33:51.945Z,15.52
2023-01-31T09:35:31.618Z,17.18
2023-01-31T09:37:11.470Z,16.93
2023-01-31T09:38:51.082Z,16.95
2023-01-31T09:40:30.881Z,15.88
2023-01-31T09:42:10.660Z,15.88
2023-01-31T09:43:50.509Z,15.61
2023-01-31T09:45:30.177Z,15.89
2023-01-31T09:47:10.123Z,20.36
2023-01-31T09:48:49.775Z,19.84
2023-01-31T09:50:29.561Z,21.27
2023-01-31T09:52:09.349Z,23.83
2023-01-31T09:53:49.219Z,23.6
2023-01-31T09:55:28.805Z,28.21
2023-01-31T09:57:08.611Z,31.52
2023-01-31T09:58:48.450Z,32.52
2023-01-31T10:00:28.174Z,32.09
2023-01-31T10:02:07.876Z,32.89
2023-01-31T10:03:47.705Z,34.04
2023-01-31T10:05:27.599Z,32.93
2023-01-31T10:07:07.189Z,28.03
2023-01-31T10:08:47.065Z,31.25
2023-01-31T10:10:26.805Z,28.18
2023-01-31T10:12:06.562Z,30.83
2023-01-31T10:13:46.356Z,23.57
2023-01-31T10:15:26.202Z,20.62
2023-01-31T10:17:05.926Z,23.18
2023-01-31T10:18:45.720Z,30.67
2023-01-31T10:20:25.363Z,32.37
2023-01-31T10:22:05.249Z,33.18
2023-01-31T10:23:44.885Z,27.62
2023-01-31T10:25:24.726Z,28.5
2023-01-31T10:27:04.530Z,33.68
2023-01-31T10:28:44.272Z,36.5
2023-01-31T10:30:23.961Z,31.91
2023-01-31T10:32:03.959Z,32.25
2023-01-31T10:33:43.667Z,31.95
2023-01-31T10:35:23.360Z,32.24
2023-01-31T10:37:03.187Z,31.65
2023-01-31T10:38:42.858Z,30.77
2023-01-31T10:40:22.584Z,31.35
2023-01-31T10:42:02.363Z,31.35
2023-01-31T10:43:42.242Z,30.75
2023-01-31T10:45:21.989Z,31.66
2023-01-31T10:47:01.884Z,31.34
2023-01-31T10:48:41.584Z,31.93
2023-01-31T10:50:21.252Z,31.34
2023-01-31T10:52:01.086Z,31.32
2023-01-31T10:53:40.752Z,31.01
2023-01-31T10:55:20.742Z,31.63
2023-01-31T10:57:00.398Z,31.65
2023-01-31T10:58:40.093Z,31.04
2023-01-31T11:00:19.853Z,30.74
2023-01-31T11:01:59.671Z,31.34
2023-01-31T11:03:39.373Z,31.32
2023-01-31T11:05:19.156Z,31.62
2023-01-31T11:06:59.065Z,31.94
2023-01-31T11:08:38.868Z,31.63
2023-01-31T11:10:18.479Z,31.02
2023-01-31T11:11:58.361Z,31.02
2023-01-31T11:13:37.991Z,30.43
2023-01-31T11:15:17.845Z,31.61
2023-01-31T11:16:57.605Z,31.31
2023-01-31T11:18:37.435Z,31.31
2023-01-31T11:20:17.061Z,31.73
2023-01-31T11:21:56.997Z,30.72
2023-01-31T11:23:36.749Z,31.61
2023-01-31T11:25:16.421Z,31.33
2023-01-31T11:26:56.157Z,21.91
2023-01-31T11:28:36.073Z,16.16
2023-01-31T11:30:15.827Z,12.65
2023-01-31T11:31:55.503Z,14.04
2023-01-31T11:33:35.362Z,10.34
2023-01-31T11:35:15.003Z,13.7
2023-01-31T11:36:54.901Z,14.82
2023-01-31T11:38:34.539Z,12.28
2023-01-31T11:40:14.501Z,15.94
2023-01-31T11:41:54.127Z,18.2
2023-01-31T11:43:33.954Z,21.34
2023-01-31T11:45:13.675Z,21.94
2023-01-31T11:46:53.392Z,22.27
2023-01-31T11:48:33.306Z,24.08
2023-01-31T11:50:13.053Z,17.46
2023-01-31T11:51:52.845Z,14.02
2023-01-31T11:53:32.573Z,16.83
2023-01-31T11:55:12.241Z,14
2023-01-31T11:56:52.170Z,9.74
2023-01-31T11:58:31.829Z,7.48
2023-01-31T12:00:11.688Z,5.81
2023-01-31T12:01:51.349Z,10.24
2023-01-31T12:03:31.149Z,7.74
2023-01-31T12:05:11.020Z,6.06
2023-01-31T12:06:50.769Z,8.27
2023-01-31T12:08:30.503Z,9.92
2023-01-31T12:10:10.189Z,9.09
2023-01-31T12:11:49.948Z,8.47
2023-01-31T12:13:29.717Z,9.08
2023-01-31T12:15:09.620Z,9.91
2023-01-31T12:16:49.341Z,7.42
2023-01-31T12:18:29.104Z,8.24
2023-01-31T12:20:08.805Z,8.51
2023-01-31T12:21:48.696Z,13.78
2023-01-31T12:23:28.380Z,16.87
2023-01-31T12:25:08.219Z,16.07
2023-01-31T12:26:48.047Z,17.5
2023-01-31T12:28:27.637Z,16.11
2023-01-31T12:30:07.439Z,18.67
2023-01-31T12:31:47.340Z,45.24
2023-01-31T12:33:26.970Z,33.54
2023-01-31T12:35:06.727Z,29.54
2023-01-31T12:36:46.523Z,28.05
2023-01-31T12:38:26.288Z,28.04
2023-01-31T12:40:06.186Z,27.19
2023-01-31T12:41:45.961Z,26.88
2023-01-31T12:43:25.746Z,26.6
2023-01-31T12:45:05.518Z,27.19
2023-01-31T12:46:45.250Z,25.97
2023-01-31T12:48:25.055Z,26.29
2023-01-31T12:50:04.774Z,25.98
2023-01-31T12:51:44.569Z,26.58
2023-01-31T12:53:24.410Z,26.28
2023-01-31T12:55:04.055Z,25.98
2023-01-31T12:56:43.905Z,24.01
2023-01-31T12:58:23.566Z,13.29
2023-01-31T13:00:03.342Z,9.25
2023-01-31T13:01:43.227Z,14.3
2023-01-31T13:03:22.994Z,11.46
2023-01-31T13:05:02.642Z,7.8
2023-01-31T13:06:42.357Z,6.38
2023-01-31T13:08:22.322Z,4.69
2023-01-31T13:10:01.907Z,4.96
2023-01-31T13:11:41.667Z,3.3
2023-01-31T13:13:21.552Z,2.19
2023-01-31T13:15:01.433Z,3.29
2023-01-31T13:16:41.036Z,4.38
2023-01-31T13:18:20.829Z,5.2
2023-01-31T13:20:00.736Z,6.3
2023-01-31T13:21:40.290Z,7.12
2023-01-31T13:23:20.064Z,8.22
2023-01-31T13:24:59.821Z,11.26
2023-01-31T13:26:39.777Z,13.21
2023-01-31T13:28:19.539Z,9.34
2023-01-31T13:29:59.271Z,10.43
2023-01-31T13:31:38.904Z,9.34
2023-01-31T13:33:18.817Z,10.17
2023-01-31T13:34:58.684Z,11.55
2023-01-31T13:36:38.372Z,9.89
2023-01-31T13:38:18.019Z,11.28
2023-01-31T13:39:57.843Z,12.67
2023-01-31T13:41:37.688Z,11.3
2023-01-31T13:43:17.428Z,10.73
2023-01-31T13:44:57.228Z,8.53
2023-01-31T13:46:36.860Z,8.79
2023-01-31T13:48:16.687Z,9.06
2023-01-31T13:49:56.634Z,9.6
2023-01-31T13:51:36.171Z,10.44
2023-01-31T13:53:16.071Z,11
2023-01-31T13:54:55.817Z,7.96
2023-01-31T13:56:35.777Z,8.22
2023-01-31T13:58:15.622Z,6.57
2023-01-31T13:59:55.384Z,5.99
2023-01-31T14:01:35.116Z,11.52
2023-01-31T14:03:14.849Z,12.37
2023-01-31T14:04:54.543Z,8.22
2023-01-31T14:06:34.385Z,6.01
2023-01-31T14:08:14.196Z,4.64
2023-01-31T14:09:53.915Z,5.18
2023-01-31T14:11:33.691Z,4.36
2023-01-31T14:13:13.437Z,5.72
2023-01-31T14:14:53.180Z,5.98
2023-01-31T14:16:32.856Z,5.44
2023-01-31T14:18:12.703Z,5.98
2023-01-31T14:19:52.563Z,5.43
2023-01-31T14:21:32.236Z,4.62
2023-01-31T14:23:12.067Z,4.61
2023-01-31T14:24:51.757Z,3.52
2023-01-31T14:26:31.653Z,5.15
2023-01-31T14:28:11.409Z,2.97
2023-01-31T14:29:51.163Z,4.33
2023-01-31T14:31:31.034Z,3.78
2023-01-31T14:33:10.646Z,2.97
2023-01-31T14:34:50.331Z,3.24
2023-01-31T14:36:30.110Z,3.23
2023-01-31T14:38:10.064Z,2.96
2023-01-31T14:39:49.779Z,2.69
2023-01-31T14:41:29.521Z,2.69
2023-01-31T14:43:09.275Z,0.52
2023-01-31T14:44:49.118Z,1.34
2023-01-31T14:46:28.894Z,1.07
2023-01-31T14:48:08.574Z,0.8
2023-01-31T14:49:48.393Z,0.26
2023-01-31T14:51:28.083Z,0
2023-01-31T14:53:07.936Z,0
2023-01-31T14:54:47.740Z,0
2023-01-31T14:56:27.324Z,0.52
2023-01-31T14:58:07.267Z,0.52
2023-01-31T14:59:46.968Z,1.33
2023-01-31T15:01:26.655Z,0.26
2023-01-31T15:03:06.415Z,0.26
2023-01-31T15:04:46.315Z,0.52
2023-01-31T15:06:26.073Z,0.26
2023-01-31T15:08:05.850Z,1.33
2023-01-31T15:09:45.460Z,2.92
2023-01-31T15:11:25.315Z,0.52
2023-01-31T15:13:05.034Z,0
2023-01-31T15:14:44.932Z,0
2023-01-31T15:16:24.732Z,3.97
2023-01-31T15:18:04.288Z,0
2023-01-31T15:19:44.209Z,0
2023-01-31T15:21:23.962Z,0
2023-01-31T15:23:03.714Z,0
2023-01-31T15:24:43.359Z,0
2023-01-31T15:26:23.238Z,0
2023-01-31T15:28:03.130Z,0
2023-01-31T15:29:43.390Z,0
2023-01-31T15:31:22.523Z,0
2023-01-31T15:33:02.353Z,0
2023-01-31T15:34:42.133Z,0
2023-01-31T15:36:21.889Z,0
2023-01-31T15:38:01.563Z,0
2023-01-31T15:39:41.259Z,0
2023-01-31T15:41:21.106Z,0
2023-01-31T15:43:00.872Z,0
2023-01-31T15:44:40.606Z,0
2023-01-31T15:46:20.505Z,0
2023-01-31T15:48:00.280Z,0
2023-01-31T15:49:40.064Z,0
2023-01-31T15:51:19.850Z,0
2023-01-31T15:52:59.573Z,0
2023-01-31T15:54:39.330Z,0
2023-01-31T15:56:19.145Z,0
2023-01-31T15:57:58.834Z,0
2023-01-31T15:59:38.631Z,0
2023-01-31T16:01:18.383Z,0
2023-01-31T16:02:58.139Z,0
2023-01-31T16:04:37.771Z,0
2023-01-31T16:06:17.723Z,0
2023-01-31T16:07:57.319Z,0
2023-01-31T16:09:37.228Z,0
2023-01-31T16:11:16.847Z,0
2023-01-31T16:12:56.771Z,0
2023-01-31T16:14:36.552Z,0
2023-01-31T16:16:16.378Z,0
2023-01-31T16:17:56.110Z,0
2023-01-31T16:19:35.826Z,0
2023-01-31T16:21:15.611Z,0
2023-01-31T16:22:55.381Z,0
2023-01-31T16:24:35.010Z,0
2023-01-31T16:26:14.799Z,0
2023-01-31T16:27:54.665Z,0
2023-01-31T16:29:34.440Z,0
2023-01-31T16:31:14.202Z,0
2023-01-31T16:32:53.983Z,0
2023-01-31T16:34:33.729Z,0
2023-01-31T16:36:13.446Z,0
2023-01-31T16:37:53.281Z,0
2023-01-31T16:39:33.040Z,0
2023-01-31T16:41:12.845Z,0
2023-01-31T16:42:52.516Z,0
2023-01-31T16:44:32.341Z,0
2023-01-31T16:46:12.083Z,0
2023-01-31T16:47:51.782Z,0
2023-01-31T16:49:31.566Z,0
2023-01-31T16:51:11.426Z,0
2023-01-31T16:52:51.196Z,0
2023-01-31T16:54:30.977Z,0
2023-01-31T16:56:10.557Z,0
2023-01-31T16:57:50.527Z,0
2023-01-31T16:59:30.101Z,0
2023-01-31T17:01:10.007Z,0
2023-01-31T17:02:49.829Z,0
2023-01-31T17:04:29.567Z,0
2023-01-31T17:06:09.339Z,0
2023-01-31T17:07:48.937Z,0
2023-01-31T17:09:28.798Z,0
2023-01-31T17:11:08.581Z,0
2023-01-31T17:12:48.392Z,0
2023-01-31T17:14:28.183Z,0
2023-01-31T17:16:07.920Z,0
2023-01-31T17:17:47.659Z,0
2023-01-31T17:19:27.543Z,0
2023-01-31T17:21:07.254Z,0
2023-01-31T17:22:46.990Z,0
2023-01-31T17:24:26.802Z,0
2023-01-31T17:26:06.563Z,0
2023-01-31T17:27:46.132Z,0
2023-01-31T17:29:26.120Z,0
2023-01-31T17:31:05.835Z,0
2023-01-31T17:32:45.446Z,0
2023-01-31T17:34:25.384Z,0
2023-01-31T17:36:05.157Z,0
2023-01-31T17:37:44.934Z,0
2023-01-31T17:39:24.657Z,0
2023-01-31T17:41:04.406Z,0
2023-01-31T17:42:44.107Z,0
2023-01-31T17:44:23.798Z,0
2023-01-31T17:46:03.577Z,0
2023-01-31T17:47:43.399Z,0
2023-01-31T17:49:23.272Z,0
2023-01-31T17:51:02.959Z,0
2023-01-31T17:52:42.816Z,0
2023-01-31T17:54:22.405Z,0
2023-01-31T17:56:02.185Z,0
2023-01-31T17:57:42.092Z,0
2023-01-31T17:59:21.851Z,0
2023-01-31T18:01:01.669Z,0
2023-01-31T18:02:41.406Z,0
2023-01-31T18:04:21.217Z,0
2023-01-31T18:06:00.881Z,0
2023-01-31T18:07:40.725Z,0
2023-01-31T18:09:20.463Z,0
2023-01-31T18:11:00.284Z,0
2023-01-31T18:12:40.068Z,0
2023-01-31T18:14:19.798Z,0
2023-01-31T18:15:59.389Z,0
2023-01-31T18:17:39.333Z,0
2023-01-31T18:19:19.108Z,0
2023-01-31T18:20:58.843Z,0
2023-01-31T18:22:38.624Z,0
2023-01-31T18:24:18.414Z,0
2023-01-31T18:25:58.065Z,0
2023-01-31T18:27:37.982Z,0
2023-01-31T18:29:17.640Z,0
2023-01-31T18:30:57.448Z,0
2023-01-31T18:32:37.239Z,0
2023-01-31T18:34:16.825Z,0
2023-01-31T18:35:56.746Z,0
2023-01-31T18:37:36.562Z,0
2023-01-31T18:39:16.380Z,0
2023-01-31T18:40:56.104Z,0
2023-01-31T18:42:35.830Z,0
2023-01-31T18:44:15.589Z,0
2023-01-31T18:45:55.363Z,0
2023-01-31T18:47:35.069Z,0
2023-01-31T18:49:14.736Z,0
2023-01-31T18:50:54.658Z,0
2023-01-31T18:52:34.274Z,0
2023-01-31T18:54:14.145Z,0
2023-01-31T18:55:53.804Z,0
2023-01-31T18:57:33.569Z,0
2023-01-31T18:59:13.351Z,0
2023-01-31T19:00:53.112Z,0
2023-01-31T19:02:32.938Z,0
2023-01-31T19:04:12.776Z,0
2023-01-31T19:05:52.513Z,0
2023-01-31T19:07:32.163Z,0
2023-01-31T19:09:12.014Z,0
2023-01-31T19:10:51.762Z,0
2023-01-31T19:12:31.501Z,0
2023-01-31T19:14:11.245Z,0
2023-01-31T19:15:51.013Z,0
2023-01-31T19:17:30.777Z,0
2023-01-31T19:19:10.536Z,0
2023-01-31T19:20:50.311Z,0
2023-01-31T19:22:30.073Z,0
2023-01-31T19:24:09.852Z,0
2023-01-31T19:25:49.609Z,0
2023-01-31T19:27:29.432Z,0
2023-01-31T19:29:09.142Z,0
2023-01-31T19:30:49.102Z,0
2023-01-31T19:32:28.689Z,0
2023-01-31T19:34:08.479Z,0
2023-01-31T19:35:48.254Z,0
2023-01-31T19:37:27.984Z,0
2023-01-31T19:39:07.771Z,0
2023-01-31T19:40:47.527Z,0
2023-01-31T19:42:27.410Z,0
2023-01-31T19:44:07.071Z,0
2023-01-31T19:45:46.827Z,0
2023-01-31T19:47:26.583Z,0
2023-01-31T19:49:06.360Z,0
2023-01-31T19:50:46.164Z,0
2023-01-31T19:52:25.908Z,0
2023-01-31T19:54:05.672Z,0
2023-01-31T19:55:45.433Z,0
2023-01-31T19:57:25.249Z,0
2023-01-31T19:59:04.955Z,0
2023-01-31T20:00:44.752Z,0
2023-01-31T20:02:24.534Z,0
2023-01-31T20:04:04.310Z,0
2023-01-31T20:05:44.025Z,0
2023-01-31T20:07:23.840Z,0
2023-01-31T20:09:03.561Z,0
2023-01-31T20:10:43.322Z,0
2023-01-31T20:12:23.096Z,0
2023-01-31T20:14:02.899Z,0
2023-01-31T20:15:42.647Z,0
2023-01-31T20:17:22.399Z,0
2023-01-31T20:19:02.174Z,0
2023-01-31T20:20:42.077Z,0
2023-01-31T20:22:21.788Z,0
2023-01-31T20:24:01.474Z,0
2023-01-31T20:25:41.258Z,0
2023-01-31T20:27:20.999Z,0
2023-01-31T20:29:00.799Z,0
2023-01-31T20:30:40.553Z,0
2023-01-31T20:32:20.314Z,0
2023-01-31T20:34:00.114Z,0
2023-01-31T20:35:39.840Z,0
2023-01-31T20:37:19.617Z,0
2023-01-31T20:38:59.372Z,0
2023-01-31T20:40:39.158Z,0
2023-01-31T20:42:18.921Z,0
2023-01-31T20:43:58.700Z,0
2023-01-31T20:45:38.440Z,0
2023-01-31T20:47:18.212Z,0
2023-01-31T20:48:57.983Z,0
2023-01-31T20:50:37.763Z,0
2023-01-31T20:52:17.505Z,0
2023-01-31T20:53:57.274Z,0
2023-01-31T20:55:37.049Z,0
2023-01-31T20:57:16.808Z,0
2023-01-31T20:58:56.629Z,0
2023-01-31T21:00:36.347Z,0
2023-01-31T21:02:16.122Z,0
2023-01-31T21:03:55.956Z,0
2023-01-31T21:05:35.652Z,0
2023-01-31T21:07:15.423Z,0
2023-01-31T21:08:55.199Z,0
2023-01-31T21:10:34.964Z,0
2023-01-31T21:12:14.713Z,0
2023-01-31T21:13:54.482Z,0
2023-01-31T21:15:34.255Z,0
2023-01-31T21:17:14.039Z,0
2023-01-31T21:18:53.784Z,0
2023-01-31T21:20:33.598Z,0
2023-01-31T21:22:13.324Z,0
2023-01-31T21:23:53.112Z,0
2023-01-31T21:25:32.862Z,0
2023-01-31T21:27:12.664Z,0
2023-01-31T21:28:52.387Z,0
2023-01-31T21:30:32.144Z,0
2023-01-31T21:32:11.952Z,0
2023-01-31T21:33:51.740Z,0
2023-01-31T21:35:31.458Z,0
2023-01-31T21:37:11.271Z,0
2023-01-31T21:38:51.011Z,0
2023-01-31T21:40:30.797Z,0
2023-01-31T21:42:10.523Z,0
2023-01-31T21:43:50.395Z,0
2023-01-31T21:45:30.072Z,0
2023-01-31T21:47:09.914Z,0
2023-01-31T21:48:49.598Z,0
2023-01-31T21:50:29.356Z,0
2023-01-31T21:52:09.173Z,0
2023-01-31T21:53:48.904Z,0
2023-01-31T21:55:28.740Z,0
2023-01-31T21:57:08.434Z,0
2023-01-31T21:58:48.213Z,0
2023-01-31T22:00:27.975Z,0
2023-01-31T22:02:07.736Z,0
2023-01-31T22:03:47.509Z,0
2023-01-31T22:05:27.295Z,0
2023-01-31T22:07:07.044Z,0
2023-01-31T22:08:46.805Z,0
2023-01-31T22:10:26.577Z,0
2023-01-31T22:12:06.343Z,0
2023-01-31T22:13:46.112Z,0
2023-01-31T22:15:25.876Z,0
2023-01-31T22:17:05.633Z,0
2023-01-31T22:18:45.492Z,0
2023-01-31T22:20:25.189Z,0
2023-01-31T22:22:04.973Z,0
2023-01-31T22:23:44.705Z,0
2023-01-31T22:25:24.489Z,0
2023-01-31T22:27:04.245Z,0
2023-01-31T22:28:44.016Z,0
2023-01-31T22:30:23.807Z,0
2023-01-31T22:32:03.543Z,0
2023-01-31T22:33:43.317Z,0
2023-01-31T22:35:23.080Z,0
2023-01-31T22:37:02.841Z,0
2023-01-31T22:38:42.621Z,0
2023-01-31T22:40:22.394Z,0
2023-01-31T22:42:02.160Z,0
2023-01-31T22:43:41.922Z,0
2023-01-31T22:45:21.696Z,0
2023-01-31T22:47:01.461Z,0
2023-01-31T22:48:41.219Z,0
2023-01-31T22:50:21.023Z,0
2023-01-31T22:52:00.842Z,0
2023-01-31T22:53:40.515Z,0
2023-01-31T22:55:20.281Z,0
2023-01-31T22:57:00.053Z,0
2023-01-31T22:58:39.822Z,0
2023-01-31T23:00:19.589Z,0
2023-01-31T23:01:59.401Z,0
2023-01-31T23:03:39.128Z,0
2023-01-31T23:05:18.887Z,0
2023-01-31T23:06:58.664Z,0
2023-01-31T23:08:38.426Z,0
2023-01-31T23:10:18.273Z,0
2023-01-31T23:11:58.007Z,0
2023-01-31T23:13:37.717Z,0
2023-01-31T23:15:17.491Z,0
2023-01-31T23:16:57.274Z,0
2023-01-31T23:18:37.041Z,0
2023-01-31T23:20:16.795Z,0
2023-01-31T23:21:56.576Z,0
2023-01-31T23:23:36.323Z,0
2023-01-31T23:25:16.090Z,0
2023-01-31T23:26:55.886Z,0
2023-01-31T23:28:35.619Z,0
2023-01-31T23:30:15.415Z,0
2023-01-31T23:31:55.156Z,0
2023-01-31T23:33:34.925Z,0